Time;durP1;ratioP1;P1;durP2;ratioP2;P2;SDS_P1;SDS_P2;PMS_P1;PMS_P2;Temp;Humidity;BMP_temperature;BMP_pressure;BME280_temperature;BME280_humidity;BME280_pressure;Samples;Min_cycle;Max_cycle;Signal;HPM_P1;HPM_P2
2023/03/26 00:00:54;;;;;;;;;;;;;;;;;;5070782;28;20261;-59
2023/03/26 00:03:21;;;;;;;;;;;;;;;;;;5069788;28;19904;-58
2023/03/26 00:05:47;;;;;;;;;;;;;;;;;;5070538;28;20390;-57
2023/03/26 00:08:12;;;;;;;;;;;;;;;;;;5070227;28;19912;-58
2023/03/26 00:10:38;;;;;;;;;;;;;;;;;;5052549;28;19948;-60
2023/03/26 00:13:04;;;;;;;;;;;;;;;;;;5069640;28;20299;-59
2023/03/26 00:15:30;;;;;;;;;;;;;;;;;;5069982;28;20347;-59
2023/03/26 00:17:56;;;;;;;;;;;;;;;;;;5070785;28;19963;-59
2023/03/26 00:20:22;;;;;;;;;;;;;;;;;;5072135;28;19923;-60
2023/03/26 00:22:49;;;;;;;;;;;;;;;;;;5102888;22;19913;-66
2023/03/26 00:25:15;;;;;;;;;;;;;;;;;;5073719;28;20347;-67
2023/03/26 00:27:44;;;;;;;;;;;;;;;;;;5074333;28;19904;-68
2023/03/26 00:30:10;;;;;;;;;;;;;;;;;;5092616;28;19911;-66
2023/03/26 00:32:36;;;;;;;;;;;;;;;;;;5092478;28;20279;-66
2023/03/26 00:35:02;;;;;;;;;;;;;;;;;;5073753;28;19912;-68
2023/03/26 00:37:29;;;;;;;;;;;;;;;;;;5074428;28;19904;-66
2023/03/26 00:40:01;;;;;;;;;;;;;;;;;;5072923;28;19934;-65
2023/03/26 00:42:27;;;;;;;;;;;;;;;;;;5092738;28;20384;-66
2023/03/26 00:44:56;;;;;;;;;;;;;;;;;;5091908;28;19904;-66
2023/03/26 00:47:22;;;;;;;;;;;;;;;;;;5092752;28;20372;-66
2023/03/26 00:49:49;;;;;;;;;;;;;;;;;;5091612;28;19904;-67
2023/03/26 00:52:17;;;;;;;;;;;;;;;;;;5091477;28;19965;-63
2023/03/26 00:54:43;;;;;;;;;;;;;;;;;;5090427;28;19904;-67
2023/03/26 00:57:10;;;;;;;;;;;;;;;;;;5091961;28;19915;-66
2023/03/26 00:59:36;;;;;;;;;;;;;;;;;;5092304;28;19908;-66
2023/03/26 01:02:03;;;;;;;;;;;;;;;;;;5092333;28;19995;-66
2023/03/26 01:04:29;;;;;;;;;;;;;;;;;;5091522;28;19939;-68
2023/03/26 01:06:55;;;;;;;;;;;;;;;;;;5092557;28;19911;-68
2023/03/26 01:09:21;;;;;;;;;;;;;;;;;;5090817;28;19904;-67
2023/03/26 01:11:47;;;;;;;;;;;;;;;;;;5092112;28;20278;-67
2023/03/26 01:14:12;;;;;;;;;;;;;;;;;;5089852;28;19904;-66
2023/03/26 01:16:38;;;;;;;;;;;;;;;;;;5092108;28;20406;-65
2023/03/26 01:19:04;;;;;;;;;;;;;;;;;;5092058;28;20046;-65
2023/03/26 01:21:33;;;;;;;;;;;;;;;;;;5090742;28;20284;-65
2023/03/26 01:23:59;;;;;;;;;;;;;;;;;;5091139;28;20282;-67
2023/03/26 01:26:25;;;;;;;;;;;;;;;;;;5091925;28;19903;-66
2023/03/26 01:28:52;;;;;;;;;;;;;;;;;;5090508;28;19904;-66
2023/03/26 01:31:17;;;;;;;;;;;;;;;;;;5091746;28;19965;-67
2023/03/26 01:33:43;;;;;;;;;;;;;;;;;;5090916;28;19923;-67
2023/03/26 01:36:09;;;;;;;;;;;;;;;;;;5091514;28;19959;-68
2023/03/26 01:38:35;;;;;;;;;;;;;;;;;;5091658;28;19904;-66
2023/03/26 01:41:01;;;;;;;;;;;;;;;;;;5091665;28;19912;-67
2023/03/26 01:43:27;;;;;;;;;;;;;;;;;;5090745;28;19920;-68
2023/03/26 01:45:53;;;;;;;;;;;;;;;;;;5091466;28;19995;-68
2023/03/26 01:48:19;;;;;;;;;;;;;;;;;;5089970;28;19904;-66
2023/03/26 01:50:44;;;;;;;;;;;;;;;;;;5090729;28;19907;-68
2023/03/26 01:53:10;;;;;;;;;;;;;;;;;;5090695;28;20383;-67
2023/03/26 01:55:37;;;;;;;;;;;;;;;;;;5091390;28;19984;-66
2023/03/26 01:58:02;;;;;;;;;;;;;;;;;;5090042;28;20396;-67
2023/03/26 02:00:28;;;;;;;;;;;;;;;;;;5091440;28;20043;-67
2023/03/26 02:02:54;;;;;;;;;;;;;;;;;;5091232;28;19915;-66
2023/03/26 02:05:20;;;;;;;;;;;;;;;;;;5090491;28;19907;-66
2023/03/26 02:07:49;;;;;;;;;;;;;;;;;;5089447;28;19915;-67
2023/03/26 02:10:15;;;;;;;;;;;;;;;;;;5091455;28;19904;-66
2023/03/26 02:12:41;;;;;;;;;;;;;;;;;;5089843;28;20356;-64
2023/03/26 02:15:07;;;;;;;;;;;;;;;;;;5090554;28;19919;-67
2023/03/26 02:17:33;;;;;;;;;;;;;;;;;;5093723;28;19912;-66
2023/03/26 02:20:09;;;;;;;;;;;;;;;;;;5093532;28;20317;-66
2023/03/26 02:22:39;;;;;;;;;;;;;;;;;;5092366;28;19904;-66
2023/03/26 02:25:05;;;;;;;;;;;;;;;;;;5084600;28;20296;-67
2023/03/26 02:27:32;;;;;;;;;;;;;;;;;;5088286;28;19904;-67
2023/03/26 02:29:58;;;;;;;;;;;;;;;;;;5090838;28;19904;-65
2023/03/26 02:32:24;;;;;;;;;;;;;;;;;;5090027;28;19908;-67
2023/03/26 02:34:50;;;;;;;;;;;;;;;;;;5088850;28;19904;-68
2023/03/26 02:37:17;;;;;;;;;;;;;;;;;;5089922;28;19904;-67
2023/03/26 02:39:43;;;;;;;;;;;;;;;;;;5091069;28;19908;-66
2023/03/26 02:42:09;;;;;;;;;;;;;;;;;;5089403;28;20060;-67
2023/03/26 02:44:37;;;;;;;;;;;;;;;;;;5090245;28;20009;-67
2023/03/26 02:47:03;;;;;;;;;;;;;;;;;;5090870;28;19908;-66
2023/03/26 02:49:29;;;;;;;;;;;;;;;;;;5090042;28;19916;-67
2023/03/26 02:51:55;;;;;;;;;;;;;;;;;;5091077;28;19916;-68
2023/03/26 02:54:21;;;;;;;;;;;;;;;;;;5090085;28;19950;-67
2023/03/26 02:56:47;;;;;;;;;;;;;;;;;;5089845;28;19987;-67
2023/03/26 02:59:13;;;;;;;;;;;;;;;;;;5091152;28;19944;-67
2023/03/26 03:01:41;;;;;;;;;;;;;;;;;;5090772;28;19908;-66
2023/03/26 03:04:07;;;;;;;;;;;;;;;;;;5090028;28;19912;-65
2023/03/26 03:06:33;;;;;;;;;;;;;;;;;;5089376;28;19915;-66
2023/03/26 03:09:01;;;;;;;;;;;;;;;;;;5089417;28;19957;-63
2023/03/26 03:11:27;;;;;;;;;;;;;;;;;;5091229;28;19915;-66
2023/03/26 03:13:53;;;;;;;;;;;;;;;;;;5090510;28;19904;-66
2023/03/26 03:16:19;;;;;;;;;;;;;;;;;;5089554;28;19911;-67
2023/03/26 03:18:46;;;;;;;;;;;;;;;;;;5090835;28;19948;-66
2023/03/26 03:21:12;;;;;;;;;;;;;;;;;;5094446;28;19961;-67
2023/03/26 03:23:38;;;;;;;;;;;;;;;;;;5092329;28;20627;-67
2023/03/26 03:26:05;;;;;;;;;;;;;;;;;;5094252;28;19987;-67
2023/03/26 03:28:31;;;;;;;;;;;;;;;;;;5094503;28;20392;-64
2023/03/26 03:30:57;;;;;;;;;;;;;;;;;;5094342;28;19987;-67
2023/03/26 03:33:23;;;;;;;;;;;;;;;;;;5093506;28;19999;-67
2023/03/26 03:35:49;;;;;;;;;;;;;;;;;;5094204;28;20316;-68
2023/03/26 03:38:15;;;;;;;;;;;;;;;;;;5093779;28;20406;-66
2023/03/26 03:40:41;;;;;;;;;;;;;;;;;;5093907;28;20356;-68
2023/03/26 03:43:07;;;;;;;;;;;;;;;;;;5093178;28;19919;-68
2023/03/26 03:45:33;;;;;;;;;;;;;;;;;;5093735;28;20387;-68
2023/03/26 03:47:59;;;;;;;;;;;;;;;;;;5093824;28;19995;-67
2023/03/26 03:50:25;;;;;;;;;;;;;;;;;;5093046;28;19911;-68
2023/03/26 03:52:51;;;;;;;;;;;;;;;;;;5093723;28;19904;-68
2023/03/26 03:55:17;;;;;;;;;;;;;;;;;;5093080;28;20267;-69
2023/03/26 03:57:43;;;;;;;;;;;;;;;;;;5093780;28;19908;-67
2023/03/26 04:00:10;;;;;;;;;;;;;;;;;;5093685;28;20264;-67
2023/03/26 04:02:36;;;;;;;;;;;;;;;;;;5093651;28;19971;-64
2023/03/26 04:05:02;;;;;;;;;;;;;;;;;;5091636;28;20012;-66
2023/03/26 04:07:30;;;;;;;;;;;;;;;;;;5093600;28;19904;-67
2023/03/26 04:09:56;;;;;;;;;;;;;;;;;;5093473;28;19955;-64
2023/03/26 04:12:21;;;;;;;;;;;;;;;;;;5092221;28;19904;-67
2023/03/26 04:14:47;;;;;;;;;;;;;;;;;;5092624;28;19964;-66
2023/03/26 04:17:14;;;;;;;;;;;;;;;;;;5093385;28;19957;-67
2023/03/26 04:19:40;;;;;;;;;;;;;;;;;;5091983;28;20386;-66
2023/03/26 04:22:06;;;;;;;;;;;;;;;;;;5091845;28;19908;-67
2023/03/26 04:24:39;;;;;;;;;;;;;;;;;;5092321;28;19912;-67
2023/03/26 04:27:05;;;;;;;;;;;;;;;;;;5095799;28;19946;-68
2023/03/26 04:29:31;;;;;;;;;;;;;;;;;;5097353;28;19908;-67
2023/03/26 04:31:57;;;;;;;;;;;;;;;;;;5093948;28;20399;-67
2023/03/26 04:34:23;;;;;;;;;;;;;;;;;;5092592;28;19915;-67
2023/03/26 04:36:53;;;;;;;;;;;;;;;;;;5093405;28;19957;-66
2023/03/26 04:39:20;;;;;;;;;;;;;;;;;;5091919;28;19958;-67
2023/03/26 04:41:46;;;;;;;;;;;;;;;;;;5092967;28;19975;-67
2023/03/26 04:44:15;;;;;;;;;;;;;;;;;;5092161;28;20314;-66
2023/03/26 04:46:44;;;;;;;;;;;;;;;;;;5092967;28;19963;-66
2023/03/26 04:49:09;;;;;;;;;;;;;;;;;;5091683;28;19911;-67
2023/03/26 04:51:37;;;;;;;;;;;;;;;;;;5092671;28;19904;-67
2023/03/26 04:54:03;;;;;;;;;;;;;;;;;;5091858;28;20384;-68
2023/03/26 04:56:28;;;;;;;;;;;;;;;;;;5092835;28;19999;-68
2023/03/26 04:58:55;;;;;;;;;;;;;;;;;;5091328;28;19904;-68
2023/03/26 05:01:23;;;;;;;;;;;;;;;;;;5092513;28;19994;-66
2023/03/26 05:03:49;;;;;;;;;;;;;;;;;;5092038;28;19923;-67
2023/03/26 05:06:15;;;;;;;;;;;;;;;;;;5091271;28;19904;-68
2023/03/26 05:08:41;;;;;;;;;;;;;;;;;;5092363;28;19949;-67
2023/03/26 05:11:10;;;;;;;;;;;;;;;;;;5092351;28;20296;-69
2023/03/26 05:13:36;;;;;;;;;;;;;;;;;;5091447;28;19904;-67
2023/03/26 05:16:01;;;;;;;;;;;;;;;;;;5091223;28;19911;-67
2023/03/26 05:18:27;;;;;;;;;;;;;;;;;;5091076;28;20044;-67
2023/03/26 05:20:56;;;;;;;;;;;;;;;;;;5092206;28;19930;-68
2023/03/26 05:23:21;;;;;;;;;;;;;;;;;;5091350;28;19958;-68
2023/03/26 05:25:47;;;;;;;;;;;;;;;;;;5092222;28;19986;-68
2023/03/26 05:28:13;;;;;;;;;;;;;;;;;;5092184;28;19904;-67
2023/03/26 05:30:39;;;;;;;;;;;;;;;;;;5091939;28;19908;-67
2023/03/26 05:33:05;;;;;;;;;;;;;;;;;;5089731;28;19908;-67
2023/03/26 05:35:31;;;;;;;;;;;;;;;;;;5091564;28;20327;-67
2023/03/26 05:37:57;;;;;;;;;;;;;;;;;;5091712;28;19958;-67
2023/03/26 05:40:23;;;;;;;;;;;;;;;;;;5090367;28;19938;-66
2023/03/26 05:42:50;;;;;;;;;;;;;;;;;;5092081;28;19994;-68
2023/03/26 05:45:16;;;;;;;;;;;;;;;;;;5091046;28;19904;-68
2023/03/26 05:47:41;;;;;;;;;;;;;;;;;;5091860;28;19900;-67
2023/03/26 05:50:07;;;;;;;;;;;;;;;;;;5088734;28;19935;-66
2023/03/26 05:52:33;;;;;;;;;;;;;;;;;;5091587;28;19930;-65
2023/03/26 05:54:59;;;;;;;;;;;;;;;;;;5088699;28;19904;-68
2023/03/26 05:57:27;;;;;;;;;;;;;;;;;;5072752;28;19904;-67
2023/03/26 05:59:52;;;;;;;;;;;;;;;;;;5091252;28;19995;-67
2023/03/26 06:02:18;;;;;;;;;;;;;;;;;;5091207;28;20004;-67
2023/03/26 06:04:44;;;;;;;;;;;;;;;;;;5090513;28;19904;-68
2023/03/26 06:07:10;;;;;;;;;;;;;;;;;;5070901;28;20275;-67
2023/03/26 06:09:39;;;;;;;;;;;;;;;;;;5091108;28;19935;-66
2023/03/26 06:12:05;;;;;;;;;;;;;;;;;;5088613;28;19910;-67
2023/03/26 06:14:31;;;;;;;;;;;;;;;;;;5086633;28;20367;-63
2023/03/26 06:16:57;;;;;;;;;;;;;;;;;;5073298;28;19904;-66
2023/03/26 06:19:23;;;;;;;;;;;;;;;;;;5072806;28;19908;-67
2023/03/26 06:21:49;;;;;;;;;;;;;;;;;;5090933;28;19908;-67
2023/03/26 06:24:18;;;;;;;;;;;;;;;;;;5097736;22;19926;-61
2023/03/26 06:26:45;;;;;;;;;;;;;;;;;;5053568;28;19931;-62
2023/03/26 06:29:11;;;;;;;;;;;;;;;;;;5051531;28;19904;-59
2023/03/26 06:31:37;;;;;;;;;;;;;;;;;;5052039;28;19916;-56
2023/03/26 06:34:02;;;;;;;;;;;;;;;;;;5043997;28;19916;-63
2023/03/26 06:36:28;;;;;;;;;;;;;;;;;;5014541;28;19905;-62
2023/03/26 06:38:55;;;;;;;;;;;;;;;;;;5014416;28;19974;-57
2023/03/26 06:41:21;;;;;;;;;;;;;;;;;;5031843;28;19917;-59
2023/03/26 06:43:47;;;;;;;;;;;;;;;;;;5031123;28;19905;-56
2023/03/26 06:46:13;;;;;;;;;;;;;;;;;;5031904;28;20002;-62
2023/03/26 06:48:39;;;;;;;;;;;;;;;;;;5031993;28;19909;-63
2023/03/26 06:51:04;;;;;;;;;;;;;;;;;;5031792;28;19905;-59
2023/03/26 06:53:30;;;;;;;;;;;;;;;;;;5031792;28;20293;-63
2023/03/26 06:55:56;;;;;;;;;;;;;;;;;;5023116;28;19954;-60
2023/03/26 06:58:22;;;;;;;;;;;;;;;;;;5055978;28;20369;-62
2023/03/26 07:00:48;;;;;;;;;;;;;;;;;;5055836;28;19909;-62
2023/03/26 07:03:16;;;;;;;;;;;;;;;;;;5055143;28;20387;-61
2023/03/26 07:05:41;;;;;;;;;;;;;;;;;;5037587;28;19905;-60
2023/03/26 07:08:07;;;;;;;;;;;;;;;;;;5055784;28;19905;-63
2023/03/26 07:10:33;;;;;;;;;;;;;;;;;;5055441;28;20325;-63
2023/03/26 07:12:59;;;;;;;;;;;;;;;;;;5037417;28;19909;-63
2023/03/26 07:15:25;;;;;;;;;;;;;;;;;;5054714;28;19905;-64
2023/03/26 07:17:51;;;;;;;;;;;;;;;;;;5055352;28;19904;-63
2023/03/26 07:20:17;;;;;;;;;;;;;;;;;;5055605;28;19911;-59
2023/03/26 07:22:43;;;;;;;;;;;;;;;;;;5055626;28;20284;-62
2023/03/26 07:25:08;;;;;;;;;;;;;;;;;;5036484;28;19961;-63
2023/03/26 07:27:34;;;;;;;;;;;;;;;;;;5055263;28;19974;-64
2023/03/26 07:30:00;;;;;;;;;;;;;;;;;;5037467;28;19919;-62
2023/03/26 07:32:26;;;;;;;;;;;;;;;;;;5037498;28;19904;-63
2023/03/26 07:34:52;;;;;;;;;;;;;;;;;;5054496;28;19904;-61
2023/03/26 07:37:18;;;;;;;;;;;;;;;;;;5037043;28;20246;-62
2023/03/26 07:39:44;;;;;;;;;;;;;;;;;;5055219;28;19940;-63
2023/03/26 07:42:10;;;;;;;;;;;;;;;;;;5037089;28;19938;-61
2023/03/26 07:44:36;;;;;;;;;;;;;;;;;;5054111;28;19966;-62
2023/03/26 07:47:03;;;;;;;;;;;;;;;;;;5054786;28;19912;-63
2023/03/26 07:49:30;;;;;;;;;;;;;;;;;;5036901;28;19905;-62
2023/03/26 07:51:56;;;;;;;;;;;;;;;;;;5054860;28;20329;-63
2023/03/26 07:54:22;;;;;;;;;;;;;;;;;;5053883;28;19912;-60
2023/03/26 07:56:48;;;;;;;;;;;;;;;;;;5054590;28;19916;-64
2023/03/26 07:59:14;;;;;;;;;;;;;;;;;;5054684;28;19912;-61
2023/03/26 08:01:40;;;;;;;;;;;;;;;;;;5054648;28;20572;-63
2023/03/26 08:04:06;;;;;;;;;;;;;;;;;;5053860;28;19928;-63
2023/03/26 08:06:32;;;;;;;;;;;;;;;;;;5035541;28;19927;-63
2023/03/26 08:08:57;;;;;;;;;;;;;;;;;;5054505;28;19995;-63
2023/03/26 08:11:24;;;;;;;;;;;;;;;;;;5036680;28;19908;-60
2023/03/26 08:13:50;;;;;;;;;;;;;;;;;;5053835;28;20010;-62
2023/03/26 08:16:16;;;;;;;;;;;;;;;;;;5036510;28;19912;-63
2023/03/26 08:18:43;;;;;;;;;;;;;;;;;;5036198;28;20004;-61
2023/03/26 08:21:09;;;;;;;;;;;;;;;;;;5054189;28;19916;-62
2023/03/26 08:23:37;;;;;;;;;;;;;;;;;;5035311;28;19904;-63
2023/03/26 08:26:02;;;;;;;;;;;;;;;;;;5036311;28;20078;-63
2023/03/26 08:28:28;;;;;;;;;;;;;;;;;;5054419;28;19947;-63
2023/03/26 08:30:54;;;;;;;;;;;;;;;;;;5042466;28;19909;-64
2023/03/26 08:33:20;;;;;;;;;;;;;;;;;;5035479;28;20289;-61
2023/03/26 08:35:46;;;;;;;;;;;;;;;;;;5054022;28;19912;-63
2023/03/26 08:38:12;;;;;;;;;;;;;;;;;;5053937;28;20361;-59
2023/03/26 08:40:38;;;;;;;;;;;;;;;;;;5053862;28;19908;-61
2023/03/26 08:43:04;;;;;;;;;;;;;;;;;;5053561;28;19955;-59
2023/03/26 08:45:30;;;;;;;;;;;;;;;;;;5054189;28;19962;-59
2023/03/26 08:47:57;;;;;;;;;;;;;;;;;;5036203;28;19909;-61
2023/03/26 08:50:23;;;;;;;;;;;;;;;;;;5035978;28;19909;-64
2023/03/26 08:52:49;;;;;;;;;;;;;;;;;;5053723;28;20003;-62
2023/03/26 08:55:15;;;;;;;;;;;;;;;;;;5035039;28;19931;-64
2023/03/26 08:57:41;;;;;;;;;;;;;;;;;;5053469;28;19912;-63
2023/03/26 09:00:09;;;;;;;;;;;;;;;;;;5035604;28;19905;-63
2023/03/26 09:02:35;;;;;;;;;;;;;;;;;;5053489;28;19999;-62
2023/03/26 09:05:01;;;;;;;;;;;;;;;;;;5052810;28;20001;-62
2023/03/26 09:07:27;;;;;;;;;;;;;;;;;;5035886;28;19904;-61
2023/03/26 09:09:53;;;;;;;;;;;;;;;;;;5036116;28;19905;-62
2023/03/26 09:12:19;;;;;;;;;;;;;;;;;;5053736;28;19908;-61
2023/03/26 09:14:45;;;;;;;;;;;;;;;;;;5052929;28;19997;-62
2023/03/26 09:17:11;;;;;;;;;;;;;;;;;;5035244;28;19911;-62
2023/03/26 09:19:37;;;;;;;;;;;;;;;;;;5037878;28;20000;-62
2023/03/26 09:22:03;;;;;;;;;;;;;;;;;;5053494;28;19944;-62
2023/03/26 09:24:29;;;;;;;;;;;;;;;;;;5052651;28;20444;-62
2023/03/26 09:26:55;;;;;;;;;;;;;;;;;;5051965;28;20327;-61
2023/03/26 09:29:21;;;;;;;;;;;;;;;;;;5035616;28;20369;-63
2023/03/26 09:31:47;;;;;;;;;;;;;;;;;;5035346;28;19905;-61
2023/03/26 09:34:12;;;;;;;;;;;;;;;;;;5052488;28;19988;-64
2023/03/26 09:36:38;;;;;;;;;;;;;;;;;;5053344;28;20436;-63
2023/03/26 09:39:04;;;;;;;;;;;;;;;;;;5034885;28;19905;-60
2023/03/26 09:41:30;;;;;;;;;;;;;;;;;;5052776;28;20364;-63
2023/03/26 09:43:56;;;;;;;;;;;;;;;;;;5034066;28;19999;-63
2023/03/26 09:46:22;;;;;;;;;;;;;;;;;;5052623;28;20357;-61
2023/03/26 09:48:48;;;;;;;;;;;;;;;;;;5034795;28;20271;-60
2023/03/26 09:51:15;;;;;;;;;;;;;;;;;;5034700;28;20419;-63
2023/03/26 09:53:41;;;;;;;;;;;;;;;;;;5033813;28;20043;-63
2023/03/26 09:56:07;;;;;;;;;;;;;;;;;;5034769;28;20403;-61
2023/03/26 09:58:33;;;;;;;;;;;;;;;;;;5067607;28;19904;-60
2023/03/26 10:01:04;;;;;;;;;;;;;;;;;;5071038;28;20361;-63
2023/03/26 10:03:30;;;;;;;;;;;;;;;;;;5070314;28;19908;-63
2023/03/26 10:05:56;;;;;;;;;;;;;;;;;;5072727;28;19943;-62
2023/03/26 10:08:28;;;;;;;;;;;;;;;;;;5073156;28;19908;-63
2023/03/26 10:10:54;;;;;;;;;;;;;;;;;;5071118;28;19905;-63
2023/03/26 10:13:20;;;;;;;;;;;;;;;;;;5071367;28;19913;-62
2023/03/26 10:15:46;;;;;;;;;;;;;;;;;;5072671;28;19965;-61
2023/03/26 10:18:13;;;;;;;;;;;;;;;;;;5071010;28;20007;-58
2023/03/26 10:20:39;;;;;;;;;;;;;;;;;;5072392;28;19915;-58
2023/03/26 10:23:05;;;;;;;;;;;;;;;;;;5070386;28;19905;-60
2023/03/26 10:25:31;;;;;;;;;;;;;;;;;;5071930;28;19912;-62
2023/03/26 10:27:57;;;;;;;;;;;;;;;;;;5069931;28;19912;-63
2023/03/26 10:30:23;;;;;;;;;;;;;;;;;;5070710;28;19966;-64
2023/03/26 10:32:49;;;;;;;;;;;;;;;;;;5071990;28;19967;-61
2023/03/26 10:35:15;;;;;;;;;;;;;;;;;;5069898;28;19904;-63
2023/03/26 10:37:40;;;;;;;;;;;;;;;;;;5070723;28;19908;-61
2023/03/26 10:40:07;;;;;;;;;;;;;;;;;;5071494;28;20369;-61
2023/03/26 10:42:33;;;;;;;;;;;;;;;;;;5072203;28;19983;-62
2023/03/26 10:44:59;;;;;;;;;;;;;;;;;;5070474;28;19957;-63
2023/03/26 10:47:25;;;;;;;;;;;;;;;;;;5073726;28;20331;-63
2023/03/26 10:49:51;;;;;;;;;;;;;;;;;;5072286;28;19908;-58
2023/03/26 10:52:17;;;;;;;;;;;;;;;;;;5067544;28;19904;-61
2023/03/26 10:54:42;;;;;;;;;;;;;;;;;;5050808;28;19971;-62
2023/03/26 10:57:08;;;;;;;;;;;;;;;;;;5052106;28;19987;-64
2023/03/26 10:59:34;;;;;;;;;;;;;;;;;;5051672;28;20935;-62
2023/03/26 11:02:00;;;;;;;;;;;;;;;;;;5051744;28;20372;-64
2023/03/26 11:04:26;;;;;;;;;;;;;;;;;;5050999;28;19905;-64
2023/03/26 11:06:52;;;;;;;;;;;;;;;;;;5043130;28;20435;-64
2023/03/26 11:09:18;;;;;;;;;;;;;;;;;;5051428;28;19965;-64
2023/03/26 11:11:44;;;;;;;;;;;;;;;;;;5033613;28;20361;-64
2023/03/26 11:14:10;;;;;;;;;;;;;;;;;;5050880;28;19994;-63
2023/03/26 11:16:36;;;;;;;;;;;;;;;;;;5051719;28;19983;-62
2023/03/26 11:19:02;;;;;;;;;;;;;;;;;;5051425;28;19949;-62
2023/03/26 11:21:28;;;;;;;;;;;;;;;;;;5033757;28;19909;-64
2023/03/26 11:23:55;;;;;;;;;;;;;;;;;;5051015;28;20365;-64
2023/03/26 11:26:20;;;;;;;;;;;;;;;;;;5051886;28;19916;-63
2023/03/26 11:28:46;;;;;;;;;;;;;;;;;;4699215;28;9999894;-63
2023/03/26 11:31:12;;;;;;;;;;;;;;;;;;5046942;28;19908;-62
2023/03/26 11:33:38;;;;;;;;;;;;;;;;;;5046720;28;19928;-65
2023/03/26 11:36:04;;;;;;;;;;;;;;;;;;5027700;28;19992;-63
2023/03/26 11:38:31;;;;;;;;;;;;;;;;;;5033973;28;19924;-63
2023/03/26 11:40:57;;;;;;;;;;;;;;;;;;5039300;28;19916;-63
2023/03/26 11:43:23;;;;;;;;;;;;;;;;;;5037032;28;19916;-64
2023/03/26 11:45:50;;;;;;;;;;;;;;;;;;5035702;28;19904;-65
2023/03/26 11:48:16;;;;;;;;;;;;;;;;;;5051980;28;19908;-65
2023/03/26 11:50:42;;;;;;;;;;;;;;;;;;5051547;28;20059;-62
2023/03/26 11:53:09;;;;;;;;;;;;;;;;;;5023542;28;19951;-64
2023/03/26 11:55:35;;;;;;;;;;;;;;;;;;5022051;28;19915;-60
2023/03/26 11:58:01;;;;;;;;;;;;;;;;;;5040791;28;19909;-63
2023/03/26 12:00:27;;;;;;;;;;;;;;;;;;5014881;28;19909;-63
2023/03/26 12:02:53;;;;;;;;;;;;;;;;;;5036010;28;19905;-66
2023/03/26 12:05:19;;;;;;;;;;;;;;;;;;5051061;28;20385;-64
2023/03/26 12:07:45;;;;;;;;;;;;;;;;;;5045469;28;19904;-64
2023/03/26 12:10:11;;;;;;;;;;;;;;;;;;5051583;28;20373;-65
2023/03/26 12:12:37;;;;;;;;;;;;;;;;;;5051756;28;20050;-64
2023/03/26 12:15:03;;;;;;;;;;;;;;;;;;5051468;28;19947;-64
2023/03/26 12:17:29;;;;;;;;;;;;;;;;;;5051485;28;19908;-64
2023/03/26 12:19:55;;;;;;;;;;;;;;;;;;5051108;28;19904;-65
2023/03/26 12:22:21;;;;;;;;;;;;;;;;;;5050481;28;19909;-64
2023/03/26 12:24:48;;;;;;;;;;;;;;;;;;5072074;22;20023;-62
2023/03/26 12:27:19;;;;;;;;;;;;;;;;;;5068801;28;19915;-60
2023/03/26 12:29:45;;;;;;;;;;;;;;;;;;5063809;28;19904;-64
2023/03/26 12:32:11;;;;;;;;;;;;;;;;;;5069714;28;19912;-65
2023/03/26 12:34:37;;;;;;;;;;;;;;;;;;5050883;28;19939;-64
2023/03/26 12:37:03;;;;;;;;;;;;;;;;;;5069704;28;19954;-63
2023/03/26 12:39:29;;;;;;;;;;;;;;;;;;5069444;28;19927;-63
2023/03/26 12:41:55;;;;;;;;;;;;;;;;;;5069171;28;20438;-62
2023/03/26 12:44:24;;;;;;;;;;;;;;;;;;5068422;28;19955;-62
2023/03/26 12:46:53;;;;;;;;;;;;;;;;;;5068990;28;20372;-64
2023/03/26 12:49:20;;;;;;;;;;;;;;;;;;5069112;28;19973;-63
2023/03/26 12:51:46;;;;;;;;;;;;;;;;;;5068251;28;20440;-63
2023/03/26 12:54:15;;;;;;;;;;;;;;;;;;5068014;28;20006;-62
2023/03/26 12:56:41;;;;;;;;;;;;;;;;;;5068917;28;19908;-64
2023/03/26 12:59:07;;;;;;;;;;;;;;;;;;5031252;28;19948;-63
2023/03/26 13:01:33;;;;;;;;;;;;;;;;;;5048574;28;19964;-64
2023/03/26 13:03:59;;;;;;;;;;;;;;;;;;5043644;28;19955;-63
2023/03/26 13:06:26;;;;;;;;;;;;;;;;;;5028563;28;19909;-64
2023/03/26 13:08:52;;;;;;;;;;;;;;;;;;5028950;28;19954;-63
2023/03/26 13:11:18;;;;;;;;;;;;;;;;;;5011147;28;19928;-59
2023/03/26 13:13:46;;;;;;;;;;;;;;;;;;5028685;28;19913;-63
2023/03/26 13:16:12;;;;;;;;;;;;;;;;;;5028388;28;19932;-62
2023/03/26 13:18:38;;;;;;;;;;;;;;;;;;5010797;28;19905;-62
2023/03/26 13:21:04;;;;;;;;;;;;;;;;;;5028696;28;20712;-62
2023/03/26 13:23:30;;;;;;;;;;;;;;;;;;5027800;28;19913;-63
2023/03/26 13:25:56;;;;;;;;;;;;;;;;;;5031818;28;20296;-63
2023/03/26 13:28:22;;;;;;;;;;;;;;;;;;5038546;28;20370;-63
2023/03/26 13:30:48;;;;;;;;;;;;;;;;;;5045890;28;19909;-64
2023/03/26 13:33:14;;;;;;;;;;;;;;;;;;5026509;28;19938;-61
2023/03/26 13:35:40;;;;;;;;;;;;;;;;;;5046702;28;19905;-61
2023/03/26 13:38:06;;;;;;;;;;;;;;;;;;5048263;28;19905;-64
2023/03/26 13:40:32;;;;;;;;;;;;;;;;;;5047829;28;19909;-62
2023/03/26 13:42:58;;;;;;;;;;;;;;;;;;5046642;28;19922;-57
2023/03/26 13:45:24;;;;;;;;;;;;;;;;;;5047694;28;19924;-63
2023/03/26 13:47:50;;;;;;;;;;;;;;;;;;5048113;28;19952;-62
2023/03/26 13:50:15;;;;;;;;;;;;;;;;;;5048257;28;20003;-64
2023/03/26 13:52:41;;;;;;;;;;;;;;;;;;5047563;28;20008;-61
2023/03/26 13:55:07;;;;;;;;;;;;;;;;;;5047396;28;20003;-64
2023/03/26 13:57:33;;;;;;;;;;;;;;;;;;5048097;28;19971;-66
2023/03/26 13:59:59;;;;;;;;;;;;;;;;;;5046634;28;19995;-62
2023/03/26 14:02:25;;;;;;;;;;;;;;;;;;5047323;28;19913;-61
2023/03/26 14:04:51;;;;;;;;;;;;;;;;;;5024811;28;19913;-63
2023/03/26 14:07:19;;;;;;;;;;;;;;;;;;5029930;28;19966;-63
2023/03/26 14:09:45;;;;;;;;;;;;;;;;;;5047905;28;19901;-64
2023/03/26 14:12:11;;;;;;;;;;;;;;;;;;5047885;28;19919;-62
2023/03/26 14:14:37;;;;;;;;;;;;;;;;;;5046680;28;19901;-62
2023/03/26 14:17:03;;;;;;;;;;;;;;;;;;5029405;28;19905;-64
2023/03/26 14:19:29;;;;;;;;;;;;;;;;;;5029774;28;19995;-63
2023/03/26 14:21:55;;;;;;;;;;;;;;;;;;5047749;28;19962;-64
2023/03/26 14:24:21;;;;;;;;;;;;;;;;;;5046535;28;20372;-63
2023/03/26 14:26:47;;;;;;;;;;;;;;;;;;5047494;28;19919;-63
2023/03/26 14:29:13;;;;;;;;;;;;;;;;;;5042631;28;19913;-64
2023/03/26 14:31:39;;;;;;;;;;;;;;;;;;5047040;28;19962;-62
2023/03/26 14:34:06;;;;;;;;;;;;;;;;;;5046782;28;20507;-64
2023/03/26 14:36:31;;;;;;;;;;;;;;;;;;5047721;28;20377;-64
2023/03/26 14:38:58;;;;;;;;;;;;;;;;;;5047490;28;19907;-64
2023/03/26 14:41:24;;;;;;;;;;;;;;;;;;5046826;28;20481;-63
2023/03/26 14:43:50;;;;;;;;;;;;;;;;;;5047274;28;20439;-64
2023/03/26 14:46:15;;;;;;;;;;;;;;;;;;5047513;28;19912;-63
2023/03/26 14:48:41;;;;;;;;;;;;;;;;;;5047168;28;19908;-64
2023/03/26 14:51:07;;;;;;;;;;;;;;;;;;5046201;28;19904;-61
2023/03/26 14:53:33;;;;;;;;;;;;;;;;;;5046368;28;19905;-64
2023/03/26 14:55:59;;;;;;;;;;;;;;;;;;5047109;28;19931;-63
2023/03/26 14:58:26;;;;;;;;;;;;;;;;;;5047494;28;20003;-64
2023/03/26 15:00:52;;;;;;;;;;;;;;;;;;5047323;28;19912;-63
2023/03/26 15:03:18;;;;;;;;;;;;;;;;;;5045192;28;19904;-62
2023/03/26 15:05:44;;;;;;;;;;;;;;;;;;5046768;28;20404;-61
2023/03/26 15:08:10;;;;;;;;;;;;;;;;;;5047288;28;19912;-64
2023/03/26 15:10:36;;;;;;;;;;;;;;;;;;5029377;28;19976;-63
2023/03/26 15:13:02;;;;;;;;;;;;;;;;;;5046334;28;19905;-62
2023/03/26 15:15:28;;;;;;;;;;;;;;;;;;5049434;28;19987;-63
2023/03/26 15:17:54;;;;;;;;;;;;;;;;;;5050609;28;20311;-63
2023/03/26 15:20:20;;;;;;;;;;;;;;;;;;5051483;28;19911;-64
2023/03/26 15:22:46;;;;;;;;;;;;;;;;;;5032941;28;20372;-62
2023/03/26 15:25:12;;;;;;;;;;;;;;;;;;5050137;28;19951;-64
2023/03/26 15:27:38;;;;;;;;;;;;;;;;;;5046758;28;19918;-64
2023/03/26 15:30:05;;;;;;;;;;;;;;;;;;5050469;28;20455;-64
2023/03/26 15:32:30;;;;;;;;;;;;;;;;;;5043830;28;20024;-65
2023/03/26 15:34:56;;;;;;;;;;;;;;;;;;5049697;28;19999;-65
2023/03/26 15:37:22;;;;;;;;;;;;;;;;;;5050521;28;19908;-65
2023/03/26 15:39:53;;;;;;;;;;;;;;;;;;5050221;28;20335;-63
2023/03/26 15:42:19;;;;;;;;;;;;;;;;;;5049088;28;19912;-64
2023/03/26 15:44:45;;;;;;;;;;;;;;;;;;5049805;28;20376;-64
2023/03/26 15:47:11;;;;;;;;;;;;;;;;;;5049292;28;19909;-62
2023/03/26 15:49:38;;;;;;;;;;;;;;;;;;5050763;28;20325;-61
2023/03/26 15:52:05;;;;;;;;;;;;;;;;;;5050220;28;19904;-61
2023/03/26 15:54:31;;;;;;;;;;;;;;;;;;5049740;28;19908;-63
2023/03/26 15:56:57;;;;;;;;;;;;;;;;;;5048670;28;19932;-64
2023/03/26 15:59:23;;;;;;;;;;;;;;;;;;5055743;28;19908;-66
2023/03/26 16:01:48;;;;;;;;;;;;;;;;;;5058945;28;19908;-64
2023/03/26 16:04:14;;;;;;;;;;;;;;;;;;5056113;28;20608;-64
2023/03/26 16:06:45;;;;;;;;;;;;;;;;;;5034094;28;19917;-62
2023/03/26 16:09:11;;;;;;;;;;;;;;;;;;5050414;28;20333;-63
2023/03/26 16:11:37;;;;;;;;;;;;;;;;;;5050673;28;19911;-63
2023/03/26 16:14:03;;;;;;;;;;;;;;;;;;5049769;28;19908;-63
2023/03/26 16:16:31;;;;;;;;;;;;;;;;;;5050364;28;19909;-63
2023/03/26 16:18:57;;;;;;;;;;;;;;;;;;5052404;28;19966;-63
2023/03/26 16:21:23;;;;;;;;;;;;;;;;;;5068620;28;20010;-61
2023/03/26 16:23:52;;;;;;;;;;;;;;;;;;5058970;28;20417;-62
2023/03/26 16:26:18;;;;;;;;;;;;;;;;;;5061103;28;19927;-62
2023/03/26 16:28:44;;;;;;;;;;;;;;;;;;5055723;28;20238;-63
2023/03/26 16:31:10;;;;;;;;;;;;;;;;;;5049525;28;19929;-63
2023/03/26 16:33:36;;;;;;;;;;;;;;;;;;5049246;28;19909;-63
2023/03/26 16:36:02;;;;;;;;;;;;;;;;;;5058011;28;19909;-62
2023/03/26 16:38:28;;;;;;;;;;;;;;;;;;5047772;28;20339;-62